Time;durP1;ratioP1;P1;durP2;ratioP2;P2;SDS_P1;SDS_P2;PMS_P1;PMS_P2;Temp;Humidity;BMP_temperature;BMP_pressure;BME280_temperature;BME280_humidity;BME280_pressure;Samples;Min_cycle;Max_cycle;Signal;HPM_P1;HPM_P2
2023/09/15 00:01:40;;;;;;;8.20;2.90;;;;;;;24.44;100.00;101633.44;4992047;28;20042;-39
2023/09/15 00:04:08;;;;;;;6.75;3.20;;;;;;;24.48;100.00;101638.13;4991201;28;20050;-43
2023/09/15 00:06:36;;;;;;;7.88;3.38;;;;;;;24.43;100.00;101631.88;4991035;28;20047;-43
2023/09/15 00:09:04;;;;;;;7.80;3.20;;;;;;;24.42;100.00;101630.31;4990790;28;20149;-43
2023/09/15 00:11:39;;;;;;;7.15;2.92;;;;;;;24.47;100.00;101628.84;4990762;28;20466;-42
2023/09/15 00:14:09;;;;;;;7.40;2.80;;;;;;;24.40;100.00;101641.38;4990776;28;20070;-43
2023/09/15 00:16:35;;;;;;;8.43;3.20;;;;;;;24.43;100.00;101634.72;4989492;28;20140;-42
2023/09/15 00:19:03;;;;;;;8.32;3.10;;;;;;;24.47;100.00;101633.75;4990497;28;20508;-45
2023/09/15 00:21:29;;;;;;;7.00;2.80;;;;;;;24.48;100.00;101630.41;4990566;28;20520;-43
2023/09/15 00:23:56;;;;;;;6.13;2.55;;;;;;;24.44;100.00;101638.34;4990534;28;20548;-46
2023/09/15 00:26:23;;;;;;;9.57;3.50;;;;;;;24.39;100.00;101628.47;4990554;28;20050;-46
2023/09/15 00:28:50;;;;;;;6.10;2.97;;;;;;;24.41;100.00;101628.72;4988095;28;20128;-42
2023/09/15 00:31:16;;;;;;;8.18;2.90;;;;;;;24.42;100.00;101635.22;4988873;28;20136;-46
2023/09/15 00:33:43;;;;;;;5.15;2.63;;;;;;;24.43;100.00;101636.78;4994626;28;20054;-47
2023/09/15 00:36:09;;;;;;;8.52;2.65;;;;;;;24.39;100.00;101624.81;4990435;28;20104;-41
2023/09/15 00:38:37;;;;;;;8.95;2.95;;;;;;;24.37;100.00;101621.72;4989831;28;20080;-42
2023/09/15 00:41:03;;;;;;;9.63;3.58;;;;;;;24.41;100.00;101627.97;4990578;28;20058;-46
2023/09/15 00:43:30;;;;;;;6.43;3.03;;;;;;;24.39;100.00;101630.50;4990386;28;20120;-43
2023/09/15 00:45:56;;;;;;;7.43;3.28;;;;;;;24.36;100.00;101625.81;4990536;28;20084;-43
2023/09/15 00:48:23;;;;;;;6.55;2.90;;;;;;;24.36;100.00;101620.13;4994820;28;20058;-46
2023/09/15 00:50:49;;;;;;;8.82;3.08;;;;;;;24.41;100.00;101616.59;4989977;28;20177;-42
2023/09/15 00:53:19;;;;;;;6.63;2.95;;;;;;;24.43;100.00;101622.56;4997181;28;20046;-43
2023/09/15 00:55:53;;;;;;;9.02;3.17;;;;;;;24.44;100.00;101615.63;4985992;28;20043;-42
2023/09/15 00:58:20;;;;;;;6.93;2.80;;;;;;;24.39;100.00;101616.31;4982318;28;20081;-43
2023/09/15 01:00:47;;;;;;;7.35;3.05;;;;;;;24.37;100.00;101611.09;4989726;28;20085;-42
2023/09/15 01:03:18;;;;;;;8.60;2.78;;;;;;;24.38;100.00;101611.91;4989756;28;20100;-43
2023/09/15 01:05:45;;;;;;;5.82;2.58;;;;;;;24.36;100.00;101605.91;4992372;28;20050;-42
2023/09/15 01:08:12;;;;;;;4.10;2.30;;;;;;;24.34;100.00;101606.41;4989056;28;20535;-47
2023/09/15 01:10:39;;;;;;;5.43;2.72;;;;;;;24.34;100.00;101603.56;4989171;28;20107;-44
2023/09/15 01:13:05;;;;;;;7.07;2.83;;;;;;;24.34;100.00;101599.97;4989508;28;20135;-45
2023/09/15 01:15:35;;;;;;;5.82;2.50;;;;;;;24.39;100.00;101602.09;4989520;28;20046;-46
2023/09/15 01:18:14;;;;;;;6.47;2.53;;;;;;;24.35;100.00;101596.63;4989372;28;20113;-45
2023/09/15 01:21:00;;;;;;;6.75;2.88;;;;;;;24.37;100.00;101585.53;4990005;28;20047;-46
2023/09/15 01:23:33;;;;;;;6.05;2.22;;;;;;;24.38;100.00;101587.13;4982358;28;20145;-42
2023/09/15 01:26:24;;;;;;;5.60;2.50;;;;;;;24.35;100.00;101595.81;4989561;28;20050;-43
2023/09/15 01:29:00;;;;;;;7.03;2.60;;;;;;;24.30;100.00;101582.31;4993718;28;20101;-43
2023/09/15 01:31:29;;;;;;;5.50;2.47;;;;;;;24.29;100.00;101586.41;4986349;28;20046;-43
2023/09/15 01:33:56;;;;;;;6.32;2.95;;;;;;;24.33;100.00;101581.31;4997516;28;20041;-46
2023/09/15 01:36:24;;;;;;;5.03;2.50;;;;;;;24.33;100.00;101581.31;4997435;28;20057;-45
2023/09/15 01:38:50;;;;;;;7.95;3.17;;;;;;;24.31;100.00;101583.88;4990917;28;20603;-46
2023/09/15 01:41:17;;;;;;;7.25;2.70;;;;;;;24.39;100.00;101579.34;4988790;28;20046;-46
2023/09/15 01:43:43;;;;;;;7.20;2.70;;;;;;;24.33;100.00;101578.47;4988412;28;20562;-47
2023/09/15 01:46:10;;;;;;;8.13;3.03;;;;;;;24.30;100.00;101576.66;4987239;28;20054;-43
2023/09/15 01:48:37;;;;;;;7.10;2.95;;;;;;;24.31;100.00;101573.28;4994921;28;20112;-46
2023/09/15 01:51:04;;;;;;;5.05;2.17;;;;;;;24.35;100.00;101579.56;4991015;28;20109;-45
2023/09/15 01:53:31;;;;;;;6.57;3.10;;;;;;;24.35;100.00;101579.56;4988421;28;20078;-42
2023/09/15 01:55:58;;;;;;;7.57;2.55;;;;;;;24.27;100.00;101584.06;4995404;28;20472;-45
2023/09/15 01:58:24;;;;;;;5.47;2.75;;;;;;;24.26;100.00;101587.41;4995810;28;20557;-43
2023/09/15 02:00:51;;;;;;;6.60;2.60;;;;;;;24.32;100.00;101582.59;4988063;28;20125;-44
2023/09/15 02:03:18;;;;;;;6.18;2.10;;;;;;;24.28;100.00;101588.50;4980541;28;20073;-44
2023/09/15 02:05:45;;;;;;;5.30;2.58;;;;;;;24.27;100.00;101586.91;4990277;28;20058;-46
2023/09/15 02:08:11;;;;;;;6.88;2.55;;;;;;;24.36;100.00;101591.69;4988668;28;20508;-44
2023/09/15 02:10:38;;;;;;;4.68;2.40;;;;;;;24.32;100.00;101586.25;4988835;28;20141;-43
2023/09/15 02:13:04;;;;;;;7.13;2.60;;;;;;;24.33;100.00;101593.47;4988268;28;20169;-42
2023/09/15 02:15:31;;;;;;;7.57;2.17;;;;;;;24.27;100.00;101591.84;4988011;28;20481;-45
2023/09/15 02:17:59;;;;;;;6.95;2.47;;;;;;;24.26;100.00;101590.25;4987438;28;20054;-46
2023/09/15 02:20:26;;;;;;;5.20;2.50;;;;;;;24.26;100.00;101587.41;4988316;28;20085;-47
2023/09/15 02:22:52;;;;;;;7.47;2.38;;;;;;;24.29;100.00;101580.75;4988040;28;20134;-44
2023/09/15 02:25:19;;;;;;;4.63;2.33;;;;;;;24.32;100.00;101596.81;4993897;28;20043;-46
2023/09/15 02:27:46;;;;;;;5.25;2.30;;;;;;;24.29;100.00;101586.41;4990868;28;20047;-43
2023/09/15 02:30:13;;;;;;;5.90;2.22;;;;;;;24.31;100.00;101575.34;4991524;28;20062;-39
2023/09/15 02:32:39;;;;;;;4.20;2.20;;;;;;;24.31;100.00;101569.69;4991496;28;20086;-43
2023/09/15 02:35:06;;;;;;;5.28;2.55;;;;;;;24.32;100.00;101572.03;4991578;28;20064;-46
2023/09/15 02:37:33;;;;;;;5.20;2.45;;;;;;;24.27;100.00;101569.88;4991280;28;20066;-45
2023/09/15 02:40:00;;;;;;;7.18;2.38;;;;;;;24.32;100.00;101574.06;4991465;28;20053;-42
2023/09/15 02:42:27;;;;;;;4.78;2.20;;;;;;;24.31;100.00;101566.84;4996602;28;20145;-45
2023/09/15 02:44:53;;;;;;;5.57;2.20;;;;;;;24.25;100.00;101571.63;5000815;28;20132;-45
2023/09/15 02:47:20;;;;;;;3.53;2.10;;;;;;;24.25;100.00;101568.78;4996190;28;20108;-47
2023/09/15 02:49:46;;;;;;;5.57;2.17;;;;;;;24.26;100.00;101564.66;4995814;28;20074;-46
2023/09/15 02:52:13;;;;;;;5.95;2.33;;;;;;;24.27;100.00;101567.03;4970872;28;1074385;-45
2023/09/15 02:54:39;;;;;;;7.60;2.38;;;;;;;24.31;100.00;101569.69;4992492;28;20133;-44
2023/09/15 02:57:06;;;;;;;7.97;2.40;;;;;;;24.19;100.00;101570.72;4989144;28;20692;-43
2023/09/15 02:59:32;;;;;;;5.00;2.15;;;;;;;24.23;100.00;101559.97;4992083;28;20142;-44
2023/09/15 03:01:59;;;;;;;5.57;2.50;;;;;;;24.25;100.00;101563.13;4991786;28;20050;-44
2023/09/15 03:04:26;;;;;;;5.38;2.30;;;;;;;24.19;100.00;101554.47;4992138;28;20046;-46
2023/09/15 03:06:52;;;;;;;4.43;2.05;;;;;;;24.22;100.00;101552.69;4991960;28;20042;-42
2023/09/15 03:09:19;;;;;;;5.32;2.60;;;;;;;24.19;100.00;101554.47;4984072;28;20137;-46
2023/09/15 03:11:46;;;;;;;4.63;2.15;;;;;;;24.25;100.00;101555.38;4990942;28;20046;-42
2023/09/15 03:14:12;;;;;;;4.75;2.30;;;;;;;24.20;100.00;101549.59;4999710;28;20050;-43
2023/09/15 03:16:42;;;;;;;5.85;2.22;;;;;;;24.23;100.00;101552.25;4991949;28;20046;-47
2023/09/15 03:19:09;;;;;;;5.03;2.30;;;;;;;24.19;100.00;101548.78;4991764;28;20420;-46
2023/09/15 03:21:36;;;;;;;5.85;2.60;;;;;;;24.20;100.00;101547.50;4991922;28;20046;-44
2023/09/15 03:24:03;;;;;;;6.05;2.20;;;;;;;24.24;100.00;101545.28;4991451;28;20116;-41
2023/09/15 03:26:29;;;;;;;3.63;2.30;;;;;;;24.22;100.00;101547.84;4991525;28;20129;-46
2023/09/15 03:28:56;;;;;;;3.05;1.70;;;;;;;24.22;100.00;101549.88;4991360;28;20060;-43
2023/09/15 03:31:23;;;;;;;3.38;1.83;;;;;;;24.20;100.00;101538.22;4991358;28;20133;-43
2023/09/15 03:33:49;;;;;;;4.50;1.90;;;;;;;24.23;100.00;101542.94;4991436;28;20065;-44
2023/09/15 03:36:16;;;;;;;4.18;2.20;;;;;;;24.23;100.00;101545.75;4991074;28;20042;-44
2023/09/15 03:38:43;;;;;;;4.30;2.08;;;;;;;24.18;100.00;101537.91;4990921;28;20042;-43
2023/09/15 03:41:09;;;;;;;4.03;2.30;;;;;;;24.15;100.00;101541.75;4991708;28;20137;-44
2023/09/15 03:43:35;;;;;;;4.65;2.30;;;;;;;24.21;100.00;101539.78;5006669;28;20046;-46
2023/09/15 03:46:02;;;;;;;5.70;2.33;;;;;;;24.24;100.00;101541.66;4994862;28;20078;-44
2023/09/15 03:48:29;;;;;;;4.63;2.03;;;;;;;24.23;100.00;101538.03;4992757;28;20046;-45
2023/09/15 03:50:56;;;;;;;3.13;1.90;;;;;;;24.16;100.00;101531.94;4995857;28;20763;-46
2023/09/15 03:53:22;;;;;;;3.35;1.90;;;;;;;24.20;100.00;101524.78;4991222;28;20486;-43
2023/09/15 03:55:49;;;;;;;5.35;2.30;;;;;;;24.20;100.00;101530.47;4990992;28;20572;-45
2023/09/15 03:58:15;;;;;;;5.57;1.90;;;;;;;24.22;100.00;101529.97;4998549;28;20046;-42
2023/09/15 04:00:43;;;;;;;5.05;1.90;;;;;;;24.17;100.00;101525.75;4991157;28;20046;-43
2023/09/15 04:03:09;;;;;;;5.55;2.35;;;;;;;24.22;100.00;101532.81;4989900;28;20054;-44
2023/09/15 04:05:38;;;;;;;3.78;2.10;;;;;;;24.24;100.00;101521.78;4990814;28;20436;-48
2023/09/15 04:08:04;;;;;;;4.70;2.50;;;;;;;24.23;100.00;101518.16;4998893;28;20057;-45
2023/09/15 04:10:31;;;;;;;5.32;2.00;;;;;;;24.22;100.00;101518.59;4991096;28;20074;-43
2023/09/15 04:12:57;;;;;;;5.68;2.50;;;;;;;24.16;100.00;101521.38;4990921;28;20125;-43
2023/09/15 04:15:24;;;;;;;3.90;2.10;;;;;;;24.23;100.00;101532.34;4990538;28;20042;-43
2023/09/15 04:17:50;;;;;;;3.90;1.80;;;;;;;24.16;100.00;101531.94;4990082;28;20054;-45
2023/09/15 04:20:17;;;;;;;4.90;2.08;;;;;;;24.21;100.00;101531.25;4989824;28;20104;-46
2023/09/15 04:22:56;;;;;;;4.40;2.00;;;;;;;24.22;100.00;101529.97;4990348;28;20521;-44
2023/09/15 04:25:22;;;;;;;3.75;2.28;;;;;;;24.22;100.00;101532.81;4990792;28;20126;-48
2023/09/15 04:27:49;;;;;;;9.48;2.00;;;;;;;24.17;100.00;101530.69;4990320;28;20129;-47
2023/09/15 04:30:16;;;;;;;4.13;1.90;;;;;;;24.17;100.00;101533.53;4990307;28;20049;-46
2023/09/15 04:32:42;;;;;;;7.88;2.33;;;;;;;24.17;100.00;101534.28;4989206;28;20074;-45
2023/09/15 04:35:09;;;;;;;5.13;2.15;;;;;;;24.24;100.00;101533.91;4990020;28;20065;-45
2023/09/15 04:37:35;;;;;;;4.93;2.22;;;;;;;24.17;100.00;101537.13;4992048;28;20047;-44
2023/09/15 04:40:05;;;;;;;4.53;2.13;;;;;;;24.14;100.00;101537.34;4993231;28;20058;-47
2023/09/15 04:42:32;;;;;;;3.03;1.95;;;;;;;24.13;100.00;101532.94;4989755;28;20108;-47
2023/09/15 04:45:00;;;;;;;4.03;2.10;;;;;;;24.21;100.00;101539.78;4989945;28;20050;-44
2023/09/15 04:47:33;;;;;;;4.55;2.05;;;;;;;24.15;100.00;101530.38;4992006;28;20046;-43
2023/09/15 04:49:59;;;;;;;5.53;1.95;;;;;;;24.15;100.00;101530.38;4992945;28;20100;-46
2023/09/15 04:52:26;;;;;;;4.30;2.13;;;;;;;24.08;100.00;101531.56;4998199;28;20460;-40
2023/09/15 04:54:53;;;;;;;3.75;1.92;;;;;;;24.10;100.00;101533.94;5000586;28;20053;-44
2023/09/15 04:57:20;;;;;;;4.70;1.98;;;;;;;24.10;100.00;101528.25;4990288;28;20128;-44
2023/09/15 04:59:47;;;;;;;4.00;2.05;;;;;;;24.08;100.00;101527.94;4989701;28;20101;-44
2023/09/15 05:02:14;;;;;;;4.78;2.28;;;;;;;24.08;100.00;101531.56;4990215;28;20114;-46
2023/09/15 05:04:41;;;;;;;4.72;2.20;;;;;;;24.13;100.00;101527.25;4990126;28;20492;-43
2023/09/15 05:07:08;;;;;;;6.25;2.50;;;;;;;24.08;100.00;101533.63;4989775;28;20086;-46
2023/09/15 05:09:34;;;;;;;6.32;2.03;;;;;;;24.12;100.00;101525.69;4986419;28;20050;-43
2023/09/15 05:12:01;;;;;;;3.22;2.05;;;;;;;24.10;100.00;101531.84;4989785;28;20568;-44
2023/09/15 05:14:27;;;;;;;4.03;1.83;;;;;;;24.08;100.00;101533.63;4989866;28;20069;-44
2023/09/15 05:16:54;;;;;;;5.45;1.90;;;;;;;24.08;100.00;101533.63;4990765;28;20086;-48
2023/09/15 05:19:21;;;;;;;5.07;2.03;;;;;;;24.10;100.00;101534.69;4989189;28;20046;-44
2023/09/15 05:21:47;;;;;;;3.15;1.80;;;;;;;24.09;100.00;101526.66;4990569;28;20050;-42
2023/09/15 05:24:14;;;;;;;5.80;2.13;;;;;;;24.07;100.00;101526.38;4997874;28;20498;-47
2023/09/15 05:26:40;;;;;;;6.80;1.83;;;;;;;24.03;100.00;101526.56;4989773;28;20560;-45
2023/09/15 05:29:07;;;;;;;3.80;1.98;;;;;;;24.07;100.00;101530.00;4988838;28;20420;-45
2023/09/15 05:31:33;;;;;;;3.17;1.95;;;;;;;24.06;100.00;101525.59;4983403;28;20142;-45
2023/09/15 05:34:00;;;;;;;3.70;1.60;;;;;;;24.05;100.00;101531.75;4989090;28;20054;-41
2023/09/15 05:36:27;;;;;;;4.68;2.42;;;;;;;24.01;100.00;101531.19;4988830;28;20053;-46
2023/09/15 05:38:54;;;;;;;2.63;1.70;;;;;;;24.07;100.00;101529.22;4988858;28;20092;-46
2023/09/15 05:41:20;;;;;;;4.93;2.13;;;;;;;24.04;100.00;101539.50;4997428;28;20141;-43
2023/09/15 05:43:47;;;;;;;3.65;2.00;;;;;;;24.02;100.00;101532.75;4990996;28;20050;-44
2023/09/15 05:46:13;;;;;;;3.33;1.85;;;;;;;24.03;100.00;101545.69;4988218;28;20172;-49
2023/09/15 05:48:40;;;;;;;5.78;2.20;;;;;;;24.03;100.00;101537.16;4988206;28;20057;-42
2023/09/15 05:51:07;;;;;;;5.03;2.15;;;;;;;24.04;100.00;101533.03;4998753;28;20564;-45
2023/09/15 05:53:34;;;;;;;6.10;2.08;;;;;;;24.05;100.00;101534.59;4989206;28;20054;-46
2023/09/15 05:56:02;;;;;;;3.33;1.90;;;;;;;24.05;100.00;101538.25;4989080;28;20058;-45
2023/09/15 05:58:28;;;;;;;2.85;1.92;;;;;;;24.04;100.00;101547.25;4988751;28;20086;-45
2023/09/15 06:00:55;;;;;;;4.15;1.92;;;;;;;24.03;100.00;101545.69;4988130;28;20054;-43
2023/09/15 06:03:22;;;;;;;4.47;2.33;;;;;;;24.06;100.00;101534.13;4989674;28;20050;-42
2023/09/15 06:05:49;;;;;;;4.05;1.85;;;;;;;24.06;100.00;101539.00;4997203;28;20085;-45
2023/09/15 06:08:19;;;;;;;5.82;2.15;;;;;;;24.07;100.00;101540.59;4990816;28;20568;-47
2023/09/15 06:10:47;;;;;;;2.72;1.67;;;;;;;24.05;100.00;101541.06;4993613;28;20046;-42
2023/09/15 06:13:14;;;;;;;4.50;1.83;;;;;;;24.04;100.00;101547.25;4999714;28;20144;-46
2023/09/15 06:15:41;;;;;;;4.68;2.00;;;;;;;24.03;100.00;101540.00;4996041;28;20038;-40
2023/09/15 06:18:08;;;;;;;7.07;2.53;;;;;;;24.13;100.00;101541.47;4986670;28;20548;-42
2023/09/15 06:20:34;;;;;;;6.30;2.97;;;;;;;24.00;100.00;101541.00;4996176;28;20045;-40
2023/09/15 06:23:01;;;;;;;6.72;2.65;;;;;;;23.92;100.00;101536.97;4987670;28;20137;-40
2023/09/15 06:25:30;;;;;;;7.13;2.72;;;;;;;23.89;100.00;101532.25;4988719;28;20101;-43
2023/09/15 06:27:59;;;;;;;5.30;2.45;;;;;;;23.84;100.00;101545.13;4985351;28;20050;-40
2023/09/15 06:30:45;;;;;;;6.00;2.72;;;;;;;23.85;100.00;101538.16;4988126;28;20460;-39
2023/09/15 06:33:12;;;;;;;10.02;3.13;;;;;;;23.76;100.00;101535.41;4985907;28;20058;-42
2023/09/15 06:35:38;;;;;;;6.65;2.80;;;;;;;23.80;100.00;101532.38;4988835;28;20097;-42
2023/09/15 06:38:06;;;;;;;6.97;2.70;;;;;;;23.78;100.00;101532.06;4987116;28;20149;-39
2023/09/15 06:40:35;;;;;;;9.35;3.30;;;;;;;23.76;100.00;101531.81;4990956;28;20050;-40
2023/09/15 06:43:04;;;;;;;8.70;3.60;;;;;;;23.71;100.00;101529.63;4988713;28;20046;-39
2023/09/15 06:45:31;;;;;;;9.13;3.38;;;;;;;23.62;100.00;101526.88;4988676;28;20065;-40
2023/09/15 06:48:01;;;;;;;8.05;3.53;;;;;;;23.61;100.00;101528.16;4987110;28;20579;-41
2023/09/15 06:50:28;;;;;;;9.52;3.30;;;;;;;23.62;100.00;101529.72;4987376;28;20888;-41
2023/09/15 06:52:54;;;;;;;7.10;2.85;;;;;;;23.59;100.00;101528.63;4989479;28;20073;-44
2023/09/15 06:55:21;;;;;;;7.35;3.15;;;;;;;23.49;100.00;101529.97;4988506;28;20042;-42
2023/09/15 06:57:48;;;;;;;9.77;3.00;;;;;;;23.49;100.00;101527.13;4987130;28;20049;-42
2023/09/15 07:00:15;;;;;;;9.75;4.15;;;;;;;23.56;100.00;101532.44;4988354;28;20054;-42
2023/09/15 07:02:41;;;;;;;10.40;3.33;;;;;;;23.60;100.00;101526.56;4990386;28;20054;-40
2023/09/15 07:05:08;;;;;;;7.93;2.92;;;;;;;23.54;100.00;101531.34;4988953;28;20058;-41
2023/09/15 07:07:34;;;;;;;10.10;3.10;;;;;;;23.48;100.00;101525.59;4987651;28;20053;-40
2023/09/15 07:10:01;;;;;;;8.82;3.10;;;;;;;23.41;100.00;101520.28;4986370;28;20047;-41
2023/09/15 07:12:28;;;;;;;7.38;2.95;;;;;;;23.48;100.00;101519.09;4991351;28;21554;-41
2023/09/15 07:14:54;;;;;;;6.95;2.88;;;;;;;23.53;100.00;101521.28;4993963;28;20093;-44
2023/09/15 07:17:21;;;;;;;8.10;2.92;;;;;;;23.57;100.00;101513.34;4989503;28;20142;-39
2023/09/15 07:19:48;;;;;;;9.77;3.50;;;;;;;23.55;100.00;101511.00;4997654;28;20046;-43
2023/09/15 07:22:14;;;;;;;9.35;3.53;;;;;;;23.62;100.00;101507.81;4991505;28;20526;-41
2023/09/15 07:24:41;;;;;;;6.78;2.70;;;;;;;23.65;100.00;101514.56;4991373;28;20053;-40
2023/09/15 07:27:09;;;;;;;10.52;3.30;;;;;;;23.69;100.00;101515.94;4991927;28;20052;-41
2023/09/15 07:29:36;;;;;;;8.25;2.83;;;;;;;23.73;100.00;101519.34;4990586;28;20110;-40
2023/09/15 07:32:04;;;;;;;9.73;3.60;;;;;;;23.69;100.00;101524.44;4990720;28;20472;-40
2023/09/15 07:34:31;;;;;;;7.28;2.80;;;;;;;23.69;100.00;101524.44;5001936;28;20059;-41
2023/09/15 07:36:59;;;;;;;6.95;3.05;;;;;;;23.58;100.00;101527.06;4989431;28;20120;-40
2023/09/15 07:39:26;;;;;;;9.65;3.15;;;;;;;23.62;100.00;101521.19;4990794;28;20068;-43
2023/09/15 07:41:53;;;;;;;15.02;5.28;;;;;;;23.62;100.00;101518.38;4991836;28;20046;-41
2023/09/15 07:44:19;;;;;;;8.35;2.92;;;;;;;23.60;100.00;101513.19;4999037;28;20104;-42
2023/09/15 07:46:46;;;;;;;7.65;3.50;;;;;;;23.62;100.00;101512.69;4987036;28;20112;-43
2023/09/15 07:49:13;;;;;;;13.57;3.97;;;;;;;23.62;100.00;101516.31;4988153;28;20073;-41
2023/09/15 07:51:40;;;;;;;11.57;3.38;;;;;;;23.69;100.00;101512.31;4997724;28;20082;-40
2023/09/15 07:54:06;;;;;;;9.32;3.80;;;;;;;23.73;100.00;101508.00;4994441;28;20062;-42
2023/09/15 07:56:33;;;;;;;15.32;3.85;;;;;;;23.64;100.00;101493.91;5005682;28;20047;-42
2023/09/15 07:59:00;;;;;;;10.10;3.38;;;;;;;23.63;100.00;101495.16;5000857;28;20045;-42
2023/09/15 08:01:26;;;;;;;9.23;3.60;;;;;;;23.65;100.00;101491.84;4991004;28;20053;-42
2023/09/15 08:03:53;;;;;;;7.00;3.20;;;;;;;23.69;100.00;101483.94;4990515;28;20127;-41
2023/09/15 08:06:20;;;;;;;10.63;3.40;;;;;;;23.69;100.00;101483.94;4987591;28;20065;-42
2023/09/15 08:08:47;;;;;;;13.10;3.47;;;;;;;23.70;100.00;101476.97;4985759;28;20405;-43
2023/09/15 08:11:13;;;;;;;9.77;3.03;;;;;;;23.59;100.00;101486.03;4989067;28;20140;-43
2023/09/15 08:13:40;;;;;;;9.48;3.70;;;;;;;23.62;100.00;101492.81;4989687;28;20046;-41
2023/09/15 08:16:06;;;;;;;12.48;3.13;;;;;;;23.56;100.00;101489.84;4990175;28;20445;-43
2023/09/15 08:18:33;;;;;;;7.85;2.90;;;;;;;23.58;100.00;101486.53;4993231;28;20078;-45
2023/09/15 08:21:00;;;;;;;10.68;3.00;;;;;;;23.63;100.00;101483.06;4988346;28;20054;-45
2023/09/15 08:23:26;;;;;;;12.60;3.47;;;;;;;23.65;100.00;101480.47;4989940;28;20133;-44
2023/09/15 08:25:53;;;;;;;7.53;3.00;;;;;;;23.65;100.00;101474.81;4990164;28;20050;-45
2023/09/15 08:28:19;;;;;;;8.65;3.25;;;;;;;23.66;100.00;101477.16;4989314;28;20057;-46
2023/09/15 08:30:49;;;;;;;7.88;2.70;;;;;;;23.65;100.00;101480.47;4997575;28;20046;-43
2023/09/15 08:33:16;;;;;;;9.57;2.90;;;;;;;23.67;100.00;101477.94;4991172;28;20060;-43
2023/09/15 08:35:43;;;;;;;10.07;3.20;;;;;;;23.61;100.00;101469.34;4988429;28;20050;-44
2023/09/15 08:38:12;;;;;;;12.07;3.28;;;;;;;23.65;100.00;101480.47;4989348;28;20046;-45
2023/09/15 08:40:56;;;;;;;14.50;3.33;;;;;;;23.63;100.00;101486.66;4986691;28;20120;-46
2023/09/15 08:43:24;;;;;;;8.75;3.22;;;;;;;23.62;100.00;101490.78;4987798;28;20511;-45
2023/09/15 08:45:55;;;;;;;9.55;3.03;;;;;;;23.66;100.00;101477.16;4990409;28;20073;-51
2023/09/15 08:48:27;;;;;;;5.70;2.85;;;;;;;23.67;100.00;101481.59;4981661;28;20509;-47
2023/09/15 08:50:58;;;;;;;7.20;2.83;;;;;;;23.69;100.00;101483.94;4992218;28;20141;-51
2023/09/15 08:53:29;;;;;;;9.73;3.33;;;;;;;23.67;100.00;101481.59;4982368;28;20050;-44
2023/09/15 08:55:58;;;;;;;7.90;2.95;;;;;;;23.72;100.00;101486.56;4990396;28;20046;-50
2023/09/15 08:58:25;;;;;;;9.95;3.35;;;;;;;23.71;100.00;101479.31;4984408;28;20390;-43
2023/09/15 09:00:54;;;;;;;8.40;3.30;;;;;;;23.72;100.00;101478.03;4988108;28;20892;-44
2023/09/15 09:03:23;;;;;;;11.32;3.22;;;;;;;23.70;100.00;101474.13;4991308;28;20081;-43
2023/09/15 09:05:50;;;;;;;10.80;3.10;;;;;;;23.70;100.00;101474.13;4986125;28;20061;-49
2023/09/15 09:08:21;;;;;;;10.90;2.63;;;;;;;23.66;100.00;101467.88;4995505;28;20041;-43
2023/09/15 09:10:48;;;;;;;9.80;2.78;;;;;;;23.66;100.00;101470.72;4982261;28;20509;-42
2023/09/15 09:13:15;;;;;;;10.93;3.60;;;;;;;23.60;100.00;101470.63;4991369;28;20054;-47
2023/09/15 09:15:55;;;;;;;9.65;2.63;;;;;;;23.68;100.00;101471.00;4999224;28;20083;-47
2023/09/15 09:18:22;;;;;;;11.52;3.05;;;;;;;23.66;100.00;101470.72;4993508;28;20095;-44
2023/09/15 09:20:50;;;;;;;10.25;2.78;;;;;;;23.64;100.00;101467.56;4993971;28;20134;-47
2023/09/15 09:23:18;;;;;;;8.73;2.80;;;;;;;23.67;100.00;101464.56;4989210;28;20050;-45
2023/09/15 09:25:46;;;;;;;8.55;2.47;;;;;;;23.66;100.00;101465.03;4995567;28;20046;-44
2023/09/15 09:28:13;;;;;;;9.68;3.97;;;;;;;23.61;100.00;101460.03;4993423;28;20050;-48
2023/09/15 09:30:43;;;;;;;7.15;2.58;;;;;;;23.61;100.00;101455.16;4993293;28;20564;-49
2023/09/15 09:33:12;;;;;;;8.07;2.58;;;;;;;23.63;100.00;101461.09;4987923;28;20105;-48
2023/09/15 09:35:39;;;;;;;10.05;2.90;;;;;;;23.63;100.00;101455.44;5000088;28;21704;-49
2023/09/15 09:38:05;;;;;;;7.25;2.63;;;;;;;23.66;100.00;101456.53;4987134;28;20055;-45
2023/09/15 09:40:33;;;;;;;7.38;2.45;;;;;;;23.66;100.00;101453.69;4987917;28;20323;-44
2023/09/15 09:43:00;;;;;;;6.90;2.45;;;;;;;23.68;100.00;101451.13;4989195;28;20046;-45
2023/09/15 09:45:27;;;;;;;8.45;2.90;;;;;;;23.66;100.00;101445.16;4987560;28;20054;-48
2023/09/15 09:47:55;;;;;;;7.30;2.55;;;;;;;23.66;100.00;101450.84;4988605;28;20046;-50
2023/09/15 09:50:22;;;;;;;9.60;2.47;;;;;;;23.63;100.00;101458.28;4986892;28;20140;-48
2023/09/15 09:52:50;;;;;;;6.75;2.38;;;;;;;23.67;100.00;101449.56;4988951;28;20082;-49
2023/09/15 09:55:16;;;;;;;7.40;2.35;;;;;;;23.62;100.00;101441.72;4973295;28;20081;-46
2023/09/15 09:57:43;;;;;;;10.80;2.72;;;;;;;23.62;100.00;101441.72;4991439;28;20070;-55
2023/09/15 10:00:11;;;;;;;12.70;3.33;;;;;;;23.59;100.00;101437.03;4971335;28;20062;-46
2023/09/15 10:02:40;;;;;;;7.95;2.60;;;;;;;23.55;100.00;101434.38;4978525;28;20382;-46
2023/09/15 10:05:07;;;;;;;7.00;2.50;;;;;;;23.62;100.00;101444.56;4985350;28;20058;-43
2023/09/15 10:07:35;;;;;;;9.95;2.95;;;;;;;23.60;100.00;101441.41;4988357;28;20050;-47
2023/09/15 10:10:05;;;;;;;9.73;3.33;;;;;;;23.62;100.00;101438.88;4986247;28;20050;-47
2023/09/15 10:12:32;;;;;;;7.47;2.90;;;;;;;23.61;100.00;101437.31;4992985;28;20057;-47
2023/09/15 10:15:01;;;;;;;9.07;2.30;;;;;;;23.62;100.00;101427.53;4987776;28;20046;-47
2023/09/15 10:17:27;;;;;;;9.88;2.47;;;;;;;23.62;100.00;101433.22;4988415;28;20043;-43
2023/09/15 10:19:56;;;;;;;9.13;2.90;;;;;;;23.59;100.00;101439.88;4989330;28;20086;-48
2023/09/15 10:22:23;;;;;;;5.85;2.28;;;;;;;23.59;100.00;101423.59;4993177;28;20141;-44
2023/09/15 10:24:58;;;;;;;6.93;2.38;;;;;;;23.57;100.00;101426.16;4993494;28;20476;-49
2023/09/15 10:27:27;;;;;;;7.93;2.58;;;;;;;23.55;100.00;101416.56;4982818;28;20042;-49
2023/09/15 10:30:02;;;;;;;9.98;2.88;;;;;;;23.60;100.00;101410.19;4988843;28;20133;-47
2023/09/15 10:32:35;;;;;;;7.00;2.33;;;;;;;23.59;100.00;101423.59;4990094;28;20052;-47
2023/09/15 10:35:01;;;;;;;6.68;2.60;;;;;;;23.63;100.00;101420.59;4989412;28;20516;-43
2023/09/15 10:37:29;;;;;;;8.40;2.38;;;;;;;23.59;100.00;101415.09;4986302;28;20649;-45
2023/09/15 10:39:59;;;;;;;7.00;2.60;;;;;;;23.62;100.00;101419.03;4986858;28;20054;-43
2023/09/15 10:42:28;;;;;;;6.13;2.15;;;;;;;23.64;100.00;101416.47;4983636;28;20049;-48
2023/09/15 10:44:55;;;;;;;8.75;2.65;;;;;;;23.65;100.00;101410.31;4989188;28;20050;-46
2023/09/15 10:47:22;;;;;;;10.07;3.15;;;;;;;23.65;100.00;101413.16;4992580;28;20046;-44
2023/09/15 10:49:54;;;;;;;5.88;2.83;;;;;;;23.60;100.00;101408.19;4992591;28;20162;-46
2023/09/15 10:52:35;;;;;;;7.30;2.67;;;;;;;23.70;100.00;101408.84;4990592;28;20523;-48
2023/09/15 10:55:02;;;;;;;9.07;2.20;;;;;;;23.66;100.00;101392.00;4990405;28;20066;-44
2023/09/15 10:57:32;;;;;;;8.23;2.58;;;;;;;23.64;100.00;101396.63;4997082;28;20050;-47
2023/09/15 10:59:59;;;;;;;11.57;3.20;;;;;;;23.65;100.00;101395.34;4985558;28;20436;-50
2023/09/15 11:02:26;;;;;;;6.78;2.20;;;;;;;23.62;100.00;101393.47;4990634;28;20117;-46
2023/09/15 11:04:53;;;;;;;5.15;2.28;;;;;;;23.67;100.00;101384.28;4991937;28;20050;-43
2023/09/15 11:07:21;;;;;;;9.07;2.53;;;;;;;23.69;100.00;101387.41;4990890;28;20492;-45
2023/09/15 11:09:48;;;;;;;7.40;2.22;;;;;;;23.67;100.00;101381.44;4991449;28;20112;-47
2023/09/15 11:12:14;;;;;;;9.40;2.55;;;;;;;23.69;100.00;101384.56;4991502;28;20058;-45
2023/09/15 11:14:41;;;;;;;7.50;2.20;;;;;;;23.66;100.00;101374.22;4992526;28;20054;-49
2023/09/15 11:17:08;;;;;;;9.38;2.33;;;;;;;23.69;100.00;101373.22;4989118;28;20129;-47
2023/09/15 11:19:37;;;;;;;12.55;2.50;;;;;;;23.71;100.00;101362.13;4987208;28;20161;-44